Eddy, New York
Current Conditions -  °F | °C
As of 5:53 PM on Thursday 20 Nov 2014 (Local Time) from KMSS Reporting Station
Clear Clear  
Wind Chill: 16°   Ceiling: Unl
Heat Index: 27°   Visibility: 10mi
Dew Point: 11°   Wind: 13mph
Humidity: 51%   Direction: 230°SW
Pressure: 29.78"   Gusts: NA
Location:  44.5792°N, 75.1592°W
Report Text: KMSS 202253Z AUTO 23011KT 10SM CLR M03/M12 A2978 RMK AO2 SLP092 T10281117
Loading
Personal Weather Stations






























Interactive Weather Map New forecast layout! Learn more

10-Day Weather Forecast

Advertisements
Track Severe Weather on mobile